sensor_id;sensor_type;location;lat;lon;timestamp;temperature;humidity
27900;DHT22;15243;50.726;7.080;2023-08-06T00:02:14;14.90;99.90
27900;DHT22;15243;50.726;7.080;2023-08-06T00:04:41;14.80;99.90
27900;DHT22;15243;50.726;7.080;2023-08-06T00:07:08;14.70;99.90
27900;DHT22;15243;50.726;7.080;2023-08-06T00:09:35;14.70;99.90
27900;DHT22;15243;50.726;7.080;2023-08-06T00:12:02;14.60;99.90
27900;DHT22;15243;50.726;7.080;2023-08-06T00:14:32;14.50;99.90
27900;DHT22;15243;50.726;7.080;2023-08-06T00:16:59;14.50;99.90
27900;DHT22;15243;50.726;7.080;2023-08-06T00:19:26;14.40;99.90
27900;DHT22;15243;50.726;7.080;2023-08-06T00:21:53;14.40;99.90
27900;DHT22;15243;50.726;7.080;2023-08-06T00:24:20;14.30;99.90
27900;DHT22;15243;50.726;7.080;2023-08-06T00:26:47;14.40;99.90
27900;DHT22;15243;50.726;7.080;2023-08-06T00:29:14;14.40;99.90
27900;DHT22;15243;50.726;7.080;2023-08-06T00:31:41;14.50;99.90
27900;DHT22;15243;50.726;7.080;2023-08-06T00:34:09;14.40;99.90
27900;DHT22;15243;50.726;7.080;2023-08-06T00:36:36;14.40;99.90
27900;DHT22;15243;50.726;7.080;2023-08-06T00:39:03;14.50;99.90
27900;DHT22;15243;50.726;7.080;2023-08-06T00:41:30;14.60;99.90
27900;DHT22;15243;50.726;7.080;2023-08-06T00:43:57;14.60;99.90
27900;DHT22;15243;50.726;7.080;2023-08-06T00:46:24;14.70;99.90
27900;DHT22;15243;50.726;7.080;2023-08-06T00:48:51;14.70;99.90
27900;DHT22;15243;50.726;7.080;2023-08-06T00:51:19;14.70;99.90
27900;DHT22;15243;50.726;7.080;2023-08-06T00:53:47;14.70;99.90
27900;DHT22;15243;50.726;7.080;2023-08-06T00:56:15;14.70;99.90
27900;DHT22;15243;50.726;7.080;2023-08-06T00:58:42;14.70;99.90
27900;DHT22;15243;50.726;7.080;2023-08-06T01:01:09;14.80;99.90
27900;DHT22;15243;50.726;7.080;2023-08-06T01:03:37;14.80;99.90
27900;DHT22;15243;50.726;7.080;2023-08-06T01:06:04;14.80;99.90
27900;DHT22;15243;50.726;7.080;2023-08-06T01:08:45;14.70;99.90
27900;DHT22;15243;50.726;7.080;2023-08-06T01:14:30;14.70;99.90
27900;DHT22;15243;50.726;7.080;2023-08-06T01:16:58;14.70;99.90
27900;DHT22;15243;50.726;7.080;2023-08-06T01:19:26;14.70;99.90
27900;DHT22;15243;50.726;7.080;2023-08-06T01:21:53;14.70;99.90
27900;DHT22;15243;50.726;7.080;2023-08-06T01:24:20;14.60;99.90
27900;DHT22;15243;50.726;7.080;2023-08-06T01:27:11;14.60;99.90
27900;DHT22;15243;50.726;7.080;2023-08-06T01:29:48;14.60;99.90
27900;DHT22;15243;50.726;7.080;2023-08-06T01:32:21;14.70;99.90
27900;DHT22;15243;50.726;7.080;2023-08-06T01:34:48;14.70;99.90
27900;DHT22;15243;50.726;7.080;2023-08-06T01:37:16;14.60;99.90
27900;DHT22;15243;50.726;7.080;2023-08-06T01:39:43;14.60;99.90
27900;DHT22;15243;50.726;7.080;2023-08-06T01:42:10;14.60;99.90
27900;DHT22;15243;50.726;7.080;2023-08-06T01:44:37;14.50;99.90
27900;DHT22;15243;50.726;7.080;2023-08-06T01:47:04;14.50;99.90
27900;DHT22;15243;50.726;7.080;2023-08-06T01:49:31;14.40;99.90
27900;DHT22;15243;50.726;7.080;2023-08-06T01:51:58;14.30;99.90
27900;DHT22;15243;50.726;7.080;2023-08-06T01:54:26;14.30;99.90
27900;DHT22;15243;50.726;7.080;2023-08-06T01:56:54;14.30;99.90
27900;DHT22;15243;50.726;7.080;2023-08-06T01:59:21;14.20;99.90
27900;DHT22;15243;50.726;7.080;2023-08-06T02:01:48;14.20;99.90
27900;DHT22;15243;50.726;7.080;2023-08-06T02:04:16;14.20;99.90
27900;DHT22;15243;50.726;7.080;2023-08-06T02:06:42;14.10;99.90
27900;DHT22;15243;50.726;7.080;2023-08-06T02:09:09;14.20;99.90
27900;DHT22;15243;50.726;7.080;2023-08-06T02:11:36;14.20;99.90
27900;DHT22;15243;50.726;7.080;2023-08-06T02:14:03;14.20;99.90
27900;DHT22;15243;50.726;7.080;2023-08-06T02:16:30;14.20;99.90
27900;DHT22;15243;50.726;7.080;2023-08-06T02:18:58;14.20;99.90
27900;DHT22;15243;50.726;7.080;2023-08-06T02:21:25;14.20;99.90
27900;DHT22;15243;50.726;7.080;2023-08-06T02:23:52;14.20;99.90
27900;DHT22;15243;50.726;7.080;2023-08-06T02:26:19;14.20;99.90
27900;DHT22;15243;50.726;7.080;2023-08-06T02:28:46;14.20;99.90
27900;DHT22;15243;50.726;7.080;2023-08-06T02:31:13;14.20;99.90
27900;DHT22;15243;50.726;7.080;2023-08-06T02:33:40;14.20;99.90
27900;DHT22;15243;50.726;7.080;2023-08-06T02:36:07;14.20;99.90
27900;DHT22;15243;50.726;7.080;2023-08-06T02:38:34;14.20;99.90
27900;DHT22;15243;50.726;7.080;2023-08-06T02:41:05;14.30;99.90
27900;DHT22;15243;50.726;7.080;2023-08-06T02:43:33;14.30;99.90
27900;DHT22;15243;50.726;7.080;2023-08-06T02:46:00;14.30;99.90
27900;DHT22;15243;50.726;7.080;2023-08-06T02:48:28;14.30;99.90
27900;DHT22;15243;50.726;7.080;2023-08-06T02:50:59;14.30;99.90
27900;DHT22;15243;50.726;7.080;2023-08-06T02:53:26;14.40;99.90
27900;DHT22;15243;50.726;7.080;2023-08-06T02:55:53;14.40;99.90
27900;DHT22;15243;50.726;7.080;2023-08-06T02:58:21;14.40;99.90
27900;DHT22;15243;50.726;7.080;2023-08-06T03:01:01;14.40;99.90
27900;DHT22;15243;50.726;7.080;2023-08-06T03:03:30;14.40;99.90
27900;DHT22;15243;50.726;7.080;2023-08-06T03:05:58;14.50;99.90
27900;DHT22;15243;50.726;7.080;2023-08-06T03:08:25;14.40;99.90
27900;DHT22;15243;50.726;7.080;2023-08-06T03:10:53;14.40;99.90
27900;DHT22;15243;50.726;7.080;2023-08-06T03:13:20;14.40;99.90
27900;DHT22;15243;50.726;7.080;2023-08-06T03:15:58;14.40;99.90
27900;DHT22;15243;50.726;7.080;2023-08-06T03:18:26;14.40;99.90
27900;DHT22;15243;50.726;7.080;2023-08-06T03:20:53;14.40;99.90
27900;DHT22;15243;50.726;7.080;2023-08-06T03:23:20;14.40;99.90
27900;DHT22;15243;50.726;7.080;2023-08-06T03:25:47;14.50;99.90
27900;DHT22;15243;50.726;7.080;2023-08-06T03:28:14;14.50;99.90
27900;DHT22;15243;50.726;7.080;2023-08-06T03:30:41;14.60;99.90
27900;DHT22;15243;50.726;7.080;2023-08-06T03:33:08;14.60;99.90
27900;DHT22;15243;50.726;7.080;2023-08-06T03:35:35;14.50;99.90
27900;DHT22;15243;50.726;7.080;2023-08-06T03:38:02;14.60;99.90
27900;DHT22;15243;50.726;7.080;2023-08-06T03:40:29;14.60;99.90
27900;DHT22;15243;50.726;7.080;2023-08-06T03:42:56;14.60;99.90
27900;DHT22;15243;50.726;7.080;2023-08-06T03:45:24;14.60;99.90
27900;DHT22;15243;50.726;7.080;2023-08-06T03:47:51;14.60;99.90
27900;DHT22;15243;50.726;7.080;2023-08-06T03:50:18;14.70;99.90
27900;DHT22;15243;50.726;7.080;2023-08-06T03:52:45;14.60;99.90
27900;DHT22;15243;50.726;7.080;2023-08-06T03:55:12;14.60;99.90
27900;DHT22;15243;50.726;7.080;2023-08-06T03:57:39;14.60;99.90
27900;DHT22;15243;50.726;7.080;2023-08-06T04:00:06;14.60;99.90
27900;DHT22;15243;50.726;7.080;2023-08-06T04:02:33;14.60;99.90
27900;DHT22;15243;50.726;7.080;2023-08-06T04:05:01;14.60;99.90
27900;DHT22;15243;50.726;7.080;2023-08-06T04:07:28;14.60;99.90
27900;DHT22;15243;50.726;7.080;2023-08-06T04:09:58;14.70;99.90
27900;DHT22;15243;50.726;7.080;2023-08-06T04:12:26;14.70;99.90
27900;DHT22;15243;50.726;7.080;2023-08-06T04:14:54;14.70;99.90
27900;DHT22;15243;50.726;7.080;2023-08-06T04:17:21;14.70;99.90
27900;DHT22;15243;50.726;7.080;2023-08-06T04:19:53;14.70;99.90
27900;DHT22;15243;50.726;7.080;2023-08-06T04:22:21;14.70;99.90
27900;DHT22;15243;50.726;7.080;2023-08-06T04:24:48;14.70;99.90
27900;DHT22;15243;50.726;7.080;2023-08-06T04:27:16;14.60;99.90
27900;DHT22;15243;50.726;7.080;2023-08-06T04:29:43;14.70;99.90
27900;DHT22;15243;50.726;7.080;2023-08-06T04:32:10;14.70;99.90
27900;DHT22;15243;50.726;7.080;2023-08-06T04:34:37;14.70;99.90
27900;DHT22;15243;50.726;7.080;2023-08-06T04:37:05;14.80;99.90
27900;DHT22;15243;50.726;7.080;2023-08-06T04:39:32;14.80;99.90
27900;DHT22;15243;50.726;7.080;2023-08-06T04:41:59;14.70;99.90
27900;DHT22;15243;50.726;7.080;2023-08-06T04:44:28;14.70;99.90
27900;DHT22;15243;50.726;7.080;2023-08-06T04:46:55;14.70;99.90
27900;DHT22;15243;50.726;7.080;2023-08-06T04:49:22;14.70;99.90
27900;DHT22;15243;50.726;7.080;2023-08-06T04:51:49;14.80;99.90
27900;DHT22;15243;50.726;7.080;2023-08-06T04:54:17;14.80;99.90
27900;DHT22;15243;50.726;7.080;2023-08-06T04:56:44;14.80;99.90
27900;DHT22;15243;50.726;7.080;2023-08-06T04:59:11;14.80;99.90
27900;DHT22;15243;50.726;7.080;2023-08-06T05:01:38;14.80;99.90
27900;DHT22;15243;50.726;7.080;2023-08-06T05:04:05;14.80;99.90
27900;DHT22;15243;50.726;7.080;2023-08-06T05:06:33;14.80;99.90
27900;DHT22;15243;50.726;7.080;2023-08-06T05:08:59;14.80;99.90
27900;DHT22;15243;50.726;7.080;2023-08-06T05:11:26;14.80;99.90
27900;DHT22;15243;50.726;7.080;2023-08-06T05:13:54;14.80;99.90
27900;DHT22;15243;50.726;7.080;2023-08-06T05:16:21;14.80;99.90
27900;DHT22;15243;50.726;7.080;2023-08-06T05:18:48;14.90;99.90
27900;DHT22;15243;50.726;7.080;2023-08-06T05:21:15;14.90;99.90
27900;DHT22;15243;50.726;7.080;2023-08-06T05:23:43;14.90;99.90
27900;DHT22;15243;50.726;7.080;2023-08-06T05:26:10;15.00;99.90
27900;DHT22;15243;50.726;7.080;2023-08-06T05:28:37;15.00;99.90
27900;DHT22;15243;50.726;7.080;2023-08-06T05:31:06;15.10;99.90
27900;DHT22;15243;50.726;7.080;2023-08-06T05:33:33;15.10;99.90
27900;DHT22;15243;50.726;7.080;2023-08-06T05:36:00;15.10;99.90
27900;DHT22;15243;50.726;7.080;2023-08-06T05:38:28;15.10;99.90
27900;DHT22;15243;50.726;7.080;2023-08-06T05:40:56;15.20;99.90
27900;DHT22;15243;50.726;7.080;2023-08-06T05:43:23;15.20;99.90
27900;DHT22;15243;50.726;7.080;2023-08-06T05:45:50;15.20;99.90
27900;DHT22;15243;50.726;7.080;2023-08-06T05:48:17;15.20;99.90
27900;DHT22;15243;50.726;7.080;2023-08-06T05:50:45;15.00;99.90
27900;DHT22;15243;50.726;7.080;2023-08-06T05:53:15;15.10;99.90
27900;DHT22;15243;50.726;7.080;2023-08-06T05:55:42;15.10;99.90
27900;DHT22;15243;50.726;7.080;2023-08-06T05:58:10;15.10;99.90
27900;DHT22;15243;50.726;7.080;2023-08-06T06:00:37;15.10;99.90
27900;DHT22;15243;50.726;7.080;2023-08-06T06:03:04;15.20;99.90
27900;DHT22;15243;50.726;7.080;2023-08-06T06:05:31;15.20;99.90
27900;DHT22;15243;50.726;7.080;2023-08-06T06:07:58;15.20;99.90
27900;DHT22;15243;50.726;7.080;2023-08-06T06:10:25;15.20;99.90
27900;DHT22;15243;50.726;7.080;2023-08-06T06:12:54;15.30;99.90
27900;DHT22;15243;50.726;7.080;2023-08-06T06:15:22;15.30;99.90
27900;DHT22;15243;50.726;7.080;2023-08-06T06:17:49;15.30;99.90
27900;DHT22;15243;50.726;7.080;2023-08-06T06:20:16;15.30;99.90
27900;DHT22;15243;50.726;7.080;2023-08-06T06:22:44;15.40;99.90
27900;DHT22;15243;50.726;7.080;2023-08-06T06:25:11;15.30;99.90
27900;DHT22;15243;50.726;7.080;2023-08-06T06:27:38;15.20;99.90
27900;DHT22;15243;50.726;7.080;2023-08-06T06:30:05;15.20;99.90
27900;DHT22;15243;50.726;7.080;2023-08-06T06:32:33;15.30;99.90
27900;DHT22;15243;50.726;7.080;2023-08-06T06:35:00;15.40;99.90
27900;DHT22;15243;50.726;7.080;2023-08-06T06:37:28;15.40;99.90
27900;DHT22;15243;50.726;7.080;2023-08-06T06:39:55;15.60;99.90
27900;DHT22;15243;50.726;7.080;2023-08-06T06:42:22;15.80;99.90
27900;DHT22;15243;50.726;7.080;2023-08-06T06:44:50;15.90;99.90
27900;DHT22;15243;50.726;7.080;2023-08-06T06:47:17;16.00;99.90
27900;DHT22;15243;50.726;7.080;2023-08-06T06:49:47;16.10;99.90
27900;DHT22;15243;50.726;7.080;2023-08-06T06:52:14;16.20;99.90
27900;DHT22;15243;50.726;7.080;2023-08-06T06:54:42;16.10;99.90
27900;DHT22;15243;50.726;7.080;2023-08-06T06:57:09;16.30;99.90
27900;DHT22;15243;50.726;7.080;2023-08-06T06:59:36;16.10;99.90
27900;DHT22;15243;50.726;7.080;2023-08-06T07:02:05;16.40;99.90
27900;DHT22;15243;50.726;7.080;2023-08-06T07:04:32;16.50;99.90
27900;DHT22;15243;50.726;7.080;2023-08-06T07:07:00;16.60;99.90
27900;DHT22;15243;50.726;7.080;2023-08-06T07:09:27;16.60;99.90
27900;DHT22;15243;50.726;7.080;2023-08-06T07:11:57;16.40;99.90
27900;DHT22;15243;50.726;7.080;2023-08-06T07:14:25;16.20;99.90
27900;DHT22;15243;50.726;7.080;2023-08-06T07:16:52;16.30;99.90
27900;DHT22;15243;50.726;7.080;2023-08-06T07:19:20;16.20;99.90
27900;DHT22;15243;50.726;7.080;2023-08-06T07:21:47;16.40;99.90
27900;DHT22;15243;50.726;7.080;2023-08-06T07:24:14;16.50;99.90
27900;DHT22;15243;50.726;7.080;2023-08-06T07:26:41;16.80;99.90
27900;DHT22;15243;50.726;7.080;2023-08-06T07:29:08;16.80;99.90
27900;DHT22;15243;50.726;7.080;2023-08-06T07:31:35;17.00;99.90
27900;DHT22;15243;50.726;7.080;2023-08-06T07:34:03;16.50;99.90
27900;DHT22;15243;50.726;7.080;2023-08-06T07:36:30;16.50;99.90
27900;DHT22;15243;50.726;7.080;2023-08-06T07:38:57;16.50;99.90
27900;DHT22;15243;50.726;7.080;2023-08-06T07:41:24;16.40;99.90
27900;DHT22;15243;50.726;7.080;2023-08-06T07:43:51;16.40;99.90
27900;DHT22;15243;50.726;7.080;2023-08-06T07:46:18;16.50;99.90
27900;DHT22;15243;50.726;7.080;2023-08-06T07:48:45;16.60;99.90
27900;DHT22;15243;50.726;7.080;2023-08-06T07:51:12;16.70;99.90
27900;DHT22;15243;50.726;7.080;2023-08-06T07:53:40;16.80;99.90
27900;DHT22;15243;50.726;7.080;2023-08-06T07:56:07;16.60;99.90
27900;DHT22;15243;50.726;7.080;2023-08-06T07:58:34;16.80;99.90
27900;DHT22;15243;50.726;7.080;2023-08-06T08:01:01;16.60;99.90
27900;DHT22;15243;50.726;7.080;2023-08-06T08:03:31;16.60;99.90
27900;DHT22;15243;50.726;7.080;2023-08-06T08:05:58;16.60;99.90
27900;DHT22;15243;50.726;7.080;2023-08-06T08:08:25;16.50;99.90
27900;DHT22;15243;50.726;7.080;2023-08-06T08:10:53;16.60;99.90
27900;DHT22;15243;50.726;7.080;2023-08-06T08:13:21;16.60;99.90
27900;DHT22;15243;50.726;7.080;2023-08-06T08:15:49;16.40;99.90
27900;DHT22;15243;50.726;7.080;2023-08-06T08:18:16;16.30;99.90
27900;DHT22;15243;50.726;7.080;2023-08-06T08:20:43;16.50;99.90
27900;DHT22;15243;50.726;7.080;2023-08-06T08:23:10;16.40;99.90
27900;DHT22;15243;50.726;7.080;2023-08-06T08:25:37;16.50;99.90
27900;DHT22;15243;50.726;7.080;2023-08-06T08:28:05;16.60;99.90
27900;DHT22;15243;50.726;7.080;2023-08-06T08:30:32;16.80;99.90
27900;DHT22;15243;50.726;7.080;2023-08-06T08:32:59;17.10;99.90
27900;DHT22;15243;50.726;7.080;2023-08-06T08:35:26;17.30;99.90
27900;DHT22;15243;50.726;7.080;2023-08-06T08:37:53;17.10;99.90
27900;DHT22;15243;50.726;7.080;2023-08-06T08:40:25;17.00;99.90
27900;DHT22;15243;50.726;7.080;2023-08-06T08:42:56;16.80;99.90
27900;DHT22;15243;50.726;7.080;2023-08-06T08:45:26;16.70;99.90
27900;DHT22;15243;50.726;7.080;2023-08-06T08:47:55;16.60;99.90
27900;DHT22;15243;50.726;7.080;2023-08-06T08:50:23;16.60;99.90
27900;DHT22;15243;50.726;7.080;2023-08-06T08:52:50;16.60;99.90
27900;DHT22;15243;50.726;7.080;2023-08-06T08:55:17;16.30;99.90
27900;DHT22;15243;50.726;7.080;2023-08-06T08:57:44;16.30;99.90
27900;DHT22;15243;50.726;7.080;2023-08-06T09:00:13;16.20;99.90
27900;DHT22;15243;50.726;7.080;2023-08-06T09:02:42;16.40;99.90
27900;DHT22;15243;50.726;7.080;2023-08-06T09:05:10;16.40;99.90
27900;DHT22;15243;50.726;7.080;2023-08-06T09:07:42;16.50;99.90
27900;DHT22;15243;50.726;7.080;2023-08-06T09:10:14;16.40;99.90
27900;DHT22;15243;50.726;7.080;2023-08-06T09:12:45;16.40;99.90
27900;DHT22;15243;50.726;7.080;2023-08-06T09:15:12;16.50;99.90
27900;DHT22;15243;50.726;7.080;2023-08-06T09:17:40;16.60;99.90
27900;DHT22;15243;50.726;7.080;2023-08-06T09:20:13;16.60;99.90
27900;DHT22;15243;50.726;7.080;2023-08-06T09:22:41;16.40;99.90
27900;DHT22;15243;50.726;7.080;2023-08-06T09:25:08;16.50;99.90
27900;DHT22;15243;50.726;7.080;2023-08-06T09:27:40;16.40;99.90
27900;DHT22;15243;50.726;7.080;2023-08-06T09:30:07;16.10;99.90
27900;DHT22;15243;50.726;7.080;2023-08-06T09:32:47;15.90;99.90
27900;DHT22;15243;50.726;7.080;2023-08-06T09:35:18;15.80;99.90
27900;DHT22;15243;50.726;7.080;2023-08-06T09:37:45;15.70;99.90
27900;DHT22;15243;50.726;7.080;2023-08-06T09:40:28;15.50;99.90
27900;DHT22;15243;50.726;7.080;2023-08-06T09:42:56;15.40;99.90
27900;DHT22;15243;50.726;7.080;2023-08-06T09:45:28;15.30;99.90
27900;DHT22;15243;50.726;7.080;2023-08-06T09:47:57;15.20;99.90
27900;DHT22;15243;50.726;7.080;2023-08-06T09:50:29;15.30;99.90
27900;DHT22;15243;50.726;7.080;2023-08-06T09:52:57;15.20;99.90
27900;DHT22;15243;50.726;7.080;2023-08-06T09:55:24;15.30;99.90
27900;DHT22;15243;50.726;7.080;2023-08-06T09:57:54;15.20;99.90
27900;DHT22;15243;50.726;7.080;2023-08-06T10:00:22;15.10;99.90
27900;DHT22;15243;50.726;7.080;2023-08-06T10:02:50;15.20;99.90
27900;DHT22;15243;50.726;7.080;2023-08-06T10:05:22;15.40;99.90
27900;DHT22;15243;50.726;7.080;2023-08-06T10:07:50;15.30;99.90
27900;DHT22;15243;50.726;7.080;2023-08-06T10:10:17;15.20;99.90
27900;DHT22;15243;50.726;7.080;2023-08-06T10:12:49;14.90;99.90
27900;DHT22;15243;50.726;7.080;2023-08-06T10:15:22;14.80;99.90
27900;DHT22;15243;50.726;7.080;2023-08-06T10:17:54;14.70;99.90
27900;DHT22;15243;50.726;7.080;2023-08-06T10:20:23;14.60;99.90
27900;DHT22;15243;50.726;7.080;2023-08-06T10:23:03;14.50;99.90
27900;DHT22;15243;50.726;7.080;2023-08-06T10:25:33;14.40;99.90
27900;DHT22;15243;50.726;7.080;2023-08-06T10:28:10;14.10;99.90
27900;DHT22;15243;50.726;7.080;2023-08-06T10:30:42;14.00;99.90
27900;DHT22;15243;50.726;7.080;2023-08-06T10:33:10;13.80;99.90
27900;DHT22;15243;50.726;7.080;2023-08-06T10:35:41;13.70;99.90
27900;DHT22;15243;50.726;7.080;2023-08-06T10:41:01;13.60;99.90
27900;DHT22;15243;50.726;7.080;2023-08-06T10:43:37;13.50;99.90
27900;DHT22;15243;50.726;7.080;2023-08-06T10:46:22;13.50;99.90
27900;DHT22;15243;50.726;7.080;2023-08-06T10:48:49;13.50;99.90
27900;DHT22;15243;50.726;7.080;2023-08-06T10:51:16;13.50;99.90
27900;DHT22;15243;50.726;7.080;2023-08-06T10:53:47;13.50;99.90
27900;DHT22;15243;50.726;7.080;2023-08-06T10:56:15;13.50;99.90
27900;DHT22;15243;50.726;7.080;2023-08-06T10:58:45;13.50;99.90
27900;DHT22;15243;50.726;7.080;2023-08-06T11:01:13;13.40;99.90
27900;DHT22;15243;50.726;7.080;2023-08-06T11:03:41;13.40;99.90
27900;DHT22;15243;50.726;7.080;2023-08-06T11:06:10;13.40;99.90
27900;DHT22;15243;50.726;7.080;2023-08-06T11:08:47;13.40;99.90
27900;DHT22;15243;50.726;7.080;2023-08-06T11:11:15;13.30;99.90
27900;DHT22;15243;50.726;7.080;2023-08-06T11:13:44;13.40;99.90
27900;DHT22;15243;50.726;7.080;2023-08-06T11:16:23;13.30;99.90
27900;DHT22;15243;50.726;7.080;2023-08-06T11:18:54;13.30;99.90
27900;DHT22;15243;50.726;7.080;2023-08-06T11:21:23;13.30;99.90
27900;DHT22;15243;50.726;7.080;2023-08-06T11:23:52;13.40;99.90
27900;DHT22;15243;50.726;7.080;2023-08-06T11:26:20;13.40;99.90
27900;DHT22;15243;50.726;7.080;2023-08-06T11:28:48;13.40;99.90
27900;DHT22;15243;50.726;7.080;2023-08-06T11:31:19;13.40;99.90
27900;DHT22;15243;50.726;7.080;2023-08-06T11:33:46;13.40;99.90
27900;DHT22;15243;50.726;7.080;2023-08-06T11:36:13;13.50;99.90
27900;DHT22;15243;50.726;7.080;2023-08-06T11:38:41;13.50;99.90
27900;DHT22;15243;50.726;7.080;2023-08-06T11:41:08;13.50;99.90
27900;DHT22;15243;50.726;7.080;2023-08-06T11:43:35;13.60;99.90
27900;DHT22;15243;50.726;7.080;2023-08-06T11:46:02;13.60;99.90
27900;DHT22;15243;50.726;7.080;2023-08-06T11:48:29;13.70;99.90
27900;DHT22;15243;50.726;7.080;2023-08-06T11:50:57;13.70;99.90
27900;DHT22;15243;50.726;7.080;2023-08-06T11:53:27;13.70;99.90
27900;DHT22;15243;50.726;7.080;2023-08-06T11:55:55;13.70;99.90
27900;DHT22;15243;50.726;7.080;2023-08-06T11:58:23;13.80;99.90
27900;DHT22;15243;50.726;7.080;2023-08-06T12:00:50;13.80;99.90
27900;DHT22;15243;50.726;7.080;2023-08-06T12:03:19;13.90;99.90
27900;DHT22;15243;50.726;7.080;2023-08-06T12:05:47;13.90;99.90
27900;DHT22;15243;50.726;7.080;2023-08-06T12:08:14;13.90;99.90
27900;DHT22;15243;50.726;7.080;2023-08-06T12:10:41;13.90;99.90
27900;DHT22;15243;50.726;7.080;2023-08-06T12:13:08;14.00;99.90
27900;DHT22;15243;50.726;7.080;2023-08-06T12:15:36;14.00;99.90
27900;DHT22;15243;50.726;7.080;2023-08-06T12:18:04;14.00;99.90
27900;DHT22;15243;50.726;7.080;2023-08-06T12:20:34;14.10;99.90
27900;DHT22;15243;50.726;7.080;2023-08-06T12:23:01;14.10;99.90
27900;DHT22;15243;50.726;7.080;2023-08-06T12:25:28;14.20;99.90
27900;DHT22;15243;50.726;7.080;2023-08-06T12:27:55;14.30;99.90
27900;DHT22;15243;50.726;7.080;2023-08-06T12:30:22;14.30;99.90
27900;DHT22;15243;50.726;7.080;2023-08-06T12:32:49;14.40;99.90
27900;DHT22;15243;50.726;7.080;2023-08-06T12:35:18;14.40;99.90
27900;DHT22;15243;50.726;7.080;2023-08-06T12:37:46;14.30;99.90
27900;DHT22;15243;50.726;7.080;2023-08-06T12:40:13;14.40;99.90
27900;DHT22;15243;50.726;7.080;2023-08-06T12:43:00;14.40;99.90
27900;DHT22;15243;50.726;7.080;2023-08-06T12:45:28;14.40;99.90
27900;DHT22;15243;50.726;7.080;2023-08-06T12:47:55;14.40;99.90
27900;DHT22;15243;50.726;7.080;2023-08-06T12:50:22;14.40;99.90
27900;DHT22;15243;50.726;7.080;2023-08-06T12:52:51;14.40;99.90
27900;DHT22;15243;50.726;7.080;2023-08-06T12:55:20;14.40;99.90
27900;DHT22;15243;50.726;7.080;2023-08-06T12:57:47;14.50;99.90
27900;DHT22;15243;50.726;7.080;2023-08-06T13:00:28;14.40;99.90
27900;DHT22;15243;50.726;7.080;2023-08-06T13:02:55;14.40;99.90
27900;DHT22;15243;50.726;7.080;2023-08-06T13:05:22;14.40;99.90
27900;DHT22;15243;50.726;7.080;2023-08-06T13:07:49;14.30;99.90
27900;DHT22;15243;50.726;7.080;2023-08-06T13:10:16;14.30;99.90
27900;DHT22;15243;50.726;7.080;2023-08-06T13:12:44;14.40;99.90
27900;DHT22;15243;50.726;7.080;2023-08-06T13:15:11;14.40;99.90
27900;DHT22;15243;50.726;7.080;2023-08-06T13:17:38;14.40;99.90
27900;DHT22;15243;50.726;7.080;2023-08-06T13:20:07;14.40;99.90
27900;DHT22;15243;50.726;7.080;2023-08-06T13:22:34;14.40;99.90
27900;DHT22;15243;50.726;7.080;2023-08-06T13:25:01;14.40;99.90
27900;DHT22;15243;50.726;7.080;2023-08-06T13:27:29;14.40;99.90
27900;DHT22;15243;50.726;7.080;2023-08-06T13:29:56;14.40;99.90
27900;DHT22;15243;50.726;7.080;2023-08-06T13:32:23;14.30;99.90
27900;DHT22;15243;50.726;7.080;2023-08-06T13:34:50;14.30;99.90
27900;DHT22;15243;50.726;7.080;2023-08-06T13:37:17;14.30;99.90
27900;DHT22;15243;50.726;7.080;2023-08-06T13:39:44;14.30;99.90
27900;DHT22;15243;50.726;7.080;2023-08-06T13:42:11;14.40;99.90
27900;DHT22;15243;50.726;7.080;2023-08-06T13:44:38;14.30;99.90
27900;DHT22;15243;50.726;7.080;2023-08-06T13:47:06;14.40;99.90
27900;DHT22;15243;50.726;7.080;2023-08-06T13:49:34;14.40;99.90
27900;DHT22;15243;50.726;7.080;2023-08-06T13:52:01;14.40;99.90
27900;DHT22;15243;50.726;7.080;2023-08-06T13:54:45;14.40;99.90
27900;DHT22;15243;50.726;7.080;2023-08-06T13:57:12;14.40;99.90
27900;DHT22;15243;50.726;7.080;2023-08-06T13:59:39;14.40;99.90
27900;DHT22;15243;50.726;7.080;2023-08-06T14:02:07;14.50;99.90
27900;DHT22;15243;50.726;7.080;2023-08-06T14:04:35;14.60;99.90
27900;DHT22;15243;50.726;7.080;2023-08-06T14:07:01;14.60;99.90
27900;DHT22;15243;50.726;7.080;2023-08-06T14:09:29;14.60;99.90
27900;DHT22;15243;50.726;7.080;2023-08-06T14:11:57;14.50;99.90
27900;DHT22;15243;50.726;7.080;2023-08-06T14:14:24;14.60;99.90
27900;DHT22;15243;50.726;7.080;2023-08-06T14:16:54;14.60;99.90
27900;DHT22;15243;50.726;7.080;2023-08-06T14:19:22;14.70;99.90
27900;DHT22;15243;50.726;7.080;2023-08-06T14:21:49;14.60;99.90
27900;DHT22;15243;50.726;7.080;2023-08-06T14:24:18;14.60;99.90
27900;DHT22;15243;50.726;7.080;2023-08-06T14:26:45;14.70;99.90
27900;DHT22;15243;50.726;7.080;2023-08-06T14:29:13;14.80;99.90
27900;DHT22;15243;50.726;7.080;2023-08-06T14:31:41;14.80;99.90
27900;DHT22;15243;50.726;7.080;2023-08-06T14:34:08;14.70;99.90
27900;DHT22;15243;50.726;7.080;2023-08-06T14:36:35;14.70;99.90
27900;DHT22;15243;50.726;7.080;2023-08-06T14:39:02;14.70;99.90
27900;DHT22;15243;50.726;7.080;2023-08-06T14:41:29;14.80;99.90
27900;DHT22;15243;50.726;7.080;2023-08-06T14:43:56;14.90;99.90
27900;DHT22;15243;50.726;7.080;2023-08-06T14:46:23;14.90;99.90
27900;DHT22;15243;50.726;7.080;2023-08-06T14:48:51;15.00;99.90
27900;DHT22;15243;50.726;7.080;2023-08-06T14:51:18;15.10;99.90
27900;DHT22;15243;50.726;7.080;2023-08-06T14:53:47;15.10;99.90
27900;DHT22;15243;50.726;7.080;2023-08-06T14:56:14;15.20;99.90
27900;DHT22;15243;50.726;7.080;2023-08-06T14:58:41;15.20;99.90
27900;DHT22;15243;50.726;7.080;2023-08-06T15:01:08;15.20;99.90
27900;DHT22;15243;50.726;7.080;2023-08-06T15:03:36;15.30;99.90
27900;DHT22;15243;50.726;7.080;2023-08-06T15:06:03;15.30;99.90
27900;DHT22;15243;50.726;7.080;2023-08-06T15:08:30;15.10;99.90
27900;DHT22;15243;50.726;7.080;2023-08-06T15:10:57;15.20;99.90
27900;DHT22;15243;50.726;7.080;2023-08-06T15:13:24;15.20;99.90
27900;DHT22;15243;50.726;7.080;2023-08-06T15:15:51;15.10;99.90
27900;DHT22;15243;50.726;7.080;2023-08-06T15:18:18;15.00;99.90
27900;DHT22;15243;50.726;7.080;2023-08-06T15:20:46;15.00;99.90
27900;DHT22;15243;50.726;7.080;2023-08-06T15:23:14;15.10;99.90
27900;DHT22;15243;50.726;7.080;2023-08-06T15:25:41;15.10;99.90
27900;DHT22;15243;50.726;7.080;2023-08-06T15:28:08;15.20;99.90
27900;DHT22;15243;50.726;7.080;2023-08-06T15:30:35;15.20;99.90
27900;DHT22;15243;50.726;7.080;2023-08-06T15:33:02;15.30;99.90
27900;DHT22;15243;50.726;7.080;2023-08-06T15:35:29;15.30;99.90
27900;DHT22;15243;50.726;7.080;2023-08-06T15:37:56;15.40;99.90
27900;DHT22;15243;50.726;7.080;2023-08-06T15:40:23;15.20;99.90
27900;DHT22;15243;50.726;7.080;2023-08-06T15:42:50;15.20;99.90